Time;durP1;ratioP1;P1;durP2;ratioP2;P2;SDS_P1;SDS_P2;PMS_P1;PMS_P2;Temp;Humidity;BMP_temperature;BMP_pressure;BME280_temperature;BME280_humidity;BME280_pressure;Samples;Min_cycle;Max_cycle;Signal;HPM_P1;HPM_P2
2021/07/04 00:02:28;;;;;;;4.40;4.00;;;14.40;99.90;;;;;;6066159;29;20200;-70
2021/07/04 00:05:42;;;;;;;4.40;4.00;;;14.40;99.90;;;;;;6079314;29;20336;-71
2021/07/04 00:08:44;;;;;;;4.53;4.00;;;14.40;99.90;;;;;;6081123;29;20212;-70
2021/07/04 00:11:47;;;;;;;4.03;3.53;;;14.30;99.90;;;;;;6081330;29;20223;-70
2021/07/04 00:14:49;;;;;;;4.27;3.87;;;14.30;99.90;;;;;;6063683;29;20785;-71
2021/07/04 00:17:52;;;;;;;4.33;3.57;;;14.30;99.90;;;;;;6063880;29;20220;-70
2021/07/04 00:20:57;;;;;;;3.90;3.60;;;14.20;99.90;;;;;;6080454;29;20227;-70
2021/07/04 00:23:59;;;;;;;4.23;3.20;;;14.30;99.90;;;;;;6080685;29;20201;-71
2021/07/04 00:27:26;;;;;;;4.17;3.77;;;14.20;99.90;;;;;;6080300;29;20715;-70
2021/07/04 00:30:28;;;;;;;3.63;3.33;;;14.10;99.90;;;;;;6063615;29;20288;-70
2021/07/04 00:33:31;;;;;;;4.23;3.73;;;14.10;99.90;;;;;;6094801;29;20284;-70
2021/07/04 00:36:33;;;;;;;3.90;3.60;;;14.00;99.90;;;;;;6080099;29;20272;-70
2021/07/04 00:39:37;;;;;;;5.33;3.93;;;14.00;99.90;;;;;;6080540;29;20347;-71
2021/07/04 00:42:41;;;;;;;7.67;4.30;;;14.00;99.90;;;;;;6079801;29;20688;-69
2021/07/04 00:45:45;;;;;;;5.00;3.57;;;13.90;99.90;;;;;;6063369;29;20209;-70
2021/07/04 00:48:48;;;;;;;3.87;3.40;;;13.80;99.90;;;;;;6063382;29;20291;-71
2021/07/04 00:51:50;;;;;;;6.07;4.03;;;13.90;99.90;;;;;;6062653;29;20696;-71
2021/07/04 00:54:53;;;;;;;4.87;4.27;;;13.90;99.90;;;;;;6047852;29;20228;-71
2021/07/04 00:57:56;;;;;;;4.27;3.87;;;13.90;99.90;;;;;;6062930;29;20367;-71
2021/07/04 01:00:59;;;;;;;4.73;4.20;;;13.90;99.90;;;;;;6064676;29;20225;-71
2021/07/04 01:04:02;;;;;;;4.10;3.80;;;13.90;99.90;;;;;;6083873;29;20189;-71
2021/07/04 01:07:06;;;;;;;5.10;4.20;;;13.90;99.90;;;;;;6062534;29;20287;-70
2021/07/04 01:10:11;;;;;;;5.27;4.07;;;13.80;99.90;;;;;;6062706;29;20224;-70
2021/07/04 01:13:14;;;;;;;4.37;3.87;;;13.70;99.90;;;;;;6062352;29;20227;-70
2021/07/04 01:16:43;;;;;;;4.37;3.97;;;13.70;99.90;;;;;;6076654;29;20211;-70
2021/07/04 01:19:47;;;;;;;4.57;4.17;;;13.70;99.90;;;;;;6062588;29;20205;-70
2021/07/04 01:23:12;;;;;;;4.33;3.87;;;13.80;99.90;;;;;;6062513;29;20212;-71
2021/07/04 01:26:16;;;;;;;4.77;4.27;;;13.80;99.90;;;;;;6079277;29;20219;-70
2021/07/04 01:29:19;;;;;;;4.00;3.60;;;13.80;99.90;;;;;;6078786;29;20218;-71
2021/07/04 01:32:23;;;;;;;4.20;3.80;;;13.80;99.90;;;;;;6066575;29;20287;-70
2021/07/04 01:35:26;;;;;;;5.37;3.77;;;13.90;99.90;;;;;;6046525;29;20679;-70
2021/07/04 01:38:29;;;;;;;6.63;4.60;;;13.80;99.90;;;;;;6061997;29;20228;-71
2021/07/04 01:41:34;;;;;;;4.00;3.60;;;13.80;99.90;;;;;;6077513;29;20200;-71
2021/07/04 01:44:39;;;;;;;4.10;3.70;;;13.70;99.90;;;;;;6047033;29;20205;-70
2021/07/04 01:47:44;;;;;;;4.93;4.00;;;13.60;99.90;;;;;;6077615;29;20211;-70
2021/07/04 01:50:50;;;;;;;4.00;3.60;;;13.60;99.90;;;;;;6078439;29;20209;-71
2021/07/04 01:53:59;;;;;;;5.80;3.70;;;13.60;99.90;;;;;;6077196;29;20668;-71
2021/07/04 01:57:11;;;;;;;4.40;4.00;;;13.60;99.90;;;;;;6062968;29;20192;-70
2021/07/04 02:00:28;;;;;;;5.10;4.23;;;13.50;99.90;;;;;;6063566;29;20200;-70
2021/07/04 02:03:40;;;;;;;4.03;3.43;;;13.60;99.90;;;;;;6089956;29;20206;-70
2021/07/04 02:06:49;;;;;;;5.80;4.30;;;13.50;99.90;;;;;;6077154;29;20204;-70
2021/07/04 02:09:52;;;;;;;4.10;3.70;;;13.50;99.90;;;;;;6061748;29;20212;-70
2021/07/04 02:12:59;;;;;;;4.63;3.80;;;13.50;99.90;;;;;;6046124;29;20227;-70
2021/07/04 02:16:04;;;;;;;4.23;3.73;;;13.50;99.90;;;;;;6077022;29;20211;-71
2021/07/04 02:19:32;;;;;;;4.67;4.27;;;13.50;99.90;;;;;;6077916;29;20181;-70
2021/07/04 02:23:18;;;;;;;4.90;3.73;;;13.40;99.90;;;;;;6070027;29;20209;-70
2021/07/04 02:26:49;;;;;;;4.50;3.80;;;13.40;99.90;;;;;;6073323;29;20255;-70
2021/07/04 02:30:05;;;;;;;4.40;4.00;;;13.40;99.90;;;;;;6076213;29;20228;-70
2021/07/04 02:33:14;;;;;;;4.30;3.83;;;13.50;99.90;;;;;;6079653;29;20214;-70
2021/07/04 02:36:16;;;;;;;5.30;4.80;;;13.50;99.90;;;;;;6060899;29;20215;-71
2021/07/04 02:39:19;;;;;;;4.47;3.90;;;13.40;99.90;;;;;;6081936;29;20242;-70
2021/07/04 02:42:23;;;;;;;4.80;4.27;;;13.40;99.90;;;;;;6059096;29;20287;-70
2021/07/04 02:45:26;;;;;;;3.90;3.50;;;13.30;99.90;;;;;;6050550;29;20205;-70
2021/07/04 02:48:54;;;;;;;4.10;3.63;;;13.40;99.90;;;;;;6067004;29;20266;-70
2021/07/04 02:51:57;;;;;;;5.40;4.20;;;13.40;99.90;;;;;;6045357;29;20223;-70
2021/07/04 02:55:00;;;;;;;4.70;4.20;;;13.40;99.90;;;;;;6060526;29;20290;-70
2021/07/04 02:58:08;;;;;;;4.50;4.10;;;13.50;99.90;;;;;;6061260;29;20289;-71
2021/07/04 03:01:13;;;;;;;4.20;3.80;;;13.60;99.90;;;;;;6077809;29;20203;-71
2021/07/04 03:04:16;;;;;;;4.60;4.17;;;13.60;99.90;;;;;;6060104;29;20235;-71
2021/07/04 03:07:20;;;;;;;6.20;3.80;;;13.60;99.90;;;;;;6076257;29;20565;-70
2021/07/04 03:10:22;;;;;;;4.80;4.30;;;13.60;99.90;;;;;;6060060;29;20221;-70
2021/07/04 03:13:28;;;;;;;4.37;3.97;;;13.60;99.90;;;;;;6076877;29;20264;-70
2021/07/04 03:16:33;;;;;;;4.93;4.40;;;13.60;99.90;;;;;;6060086;29;20196;-71
2021/07/04 03:19:36;;;;;;;4.80;4.03;;;13.70;99.90;;;;;;6059868;29;20230;-71
2021/07/04 03:22:40;;;;;;;4.50;3.87;;;13.70;99.90;;;;;;6060336;29;20264;-70
2021/07/04 03:25:43;;;;;;;4.93;4.43;;;13.70;99.90;;;;;;6075052;29;20211;-71
2021/07/04 03:28:48;;;;;;;5.27;4.77;;;13.70;99.90;;;;;;6077211;29;20199;-71
2021/07/04 03:31:58;;;;;;;7.00;4.10;;;13.80;99.90;;;;;;6080884;29;20207;-70
2021/07/04 03:35:04;;;;;;;4.20;3.80;;;13.80;99.90;;;;;;6059316;29;20204;-70
2021/07/04 03:38:07;;;;;;;4.40;4.00;;;13.80;99.90;;;;;;6076424;29;20203;-71
2021/07/04 03:41:12;;;;;;;5.10;3.83;;;13.90;99.90;;;;;;6080431;29;20235;-71
2021/07/04 03:44:15;;;;;;;4.53;4.07;;;13.90;99.90;;;;;;6064205;29;20267;-70
2021/07/04 03:47:23;;;;;;;4.47;4.07;;;14.00;99.90;;;;;;6048716;29;20211;-70
2021/07/04 03:50:28;;;;;;;5.30;4.80;;;14.00;99.90;;;;;;6048796;29;20696;-71
2021/07/04 03:53:31;;;;;;;4.90;4.17;;;14.10;99.90;;;;;;6079658;29;20684;-69
2021/07/04 03:56:33;;;;;;;5.30;4.30;;;14.20;99.90;;;;;;6063927;29;20192;-71
2021/07/04 03:59:40;;;;;;;5.23;4.73;;;14.30;99.90;;;;;;6049241;29;20659;-71
2021/07/04 04:02:43;;;;;;;5.47;4.30;;;14.30;99.90;;;;;;6095285;29;20225;-71
2021/07/04 04:05:51;;;;;;;4.77;4.27;;;14.40;99.90;;;;;;6061215;29;20288;-71
2021/07/04 04:08:54;;;;;;;5.07;3.93;;;14.50;99.90;;;;;;6058281;29;20636;-70
2021/07/04 04:12:06;;;;;;;4.00;3.70;;;14.60;99.90;;;;;;6067065;29;20365;-71
2021/07/04 04:15:12;;;;;;;5.50;4.20;;;14.70;99.90;;;;;;6073551;29;20193;-71
2021/07/04 04:18:19;;;;;;;5.00;4.50;;;14.80;99.90;;;;;;6048444;29;20197;-71
2021/07/04 04:21:22;;;;;;;4.27;3.60;;;14.80;99.90;;;;;;6080373;29;20282;-70
2021/07/04 04:24:39;;;;;;;4.90;4.03;;;14.90;99.90;;;;;;6062903;29;20245;-70
2021/07/04 04:27:42;;;;;;;4.23;3.83;;;15.00;99.90;;;;;;6063483;29;20205;-70
2021/07/04 04:30:47;;;;;;;4.37;3.97;;;15.10;99.90;;;;;;6063267;29;20217;-70
2021/07/04 04:33:53;;;;;;;4.37;3.97;;;15.10;99.90;;;;;;6101914;29;20177;-70
2021/07/04 04:36:55;;;;;;;4.80;4.30;;;15.20;99.90;;;;;;6047133;29;20197;-70
2021/07/04 04:39:57;;;;;;;4.70;4.30;;;15.20;99.90;;;;;;6071364;29;20240;-70
2021/07/04 04:43:02;;;;;;;4.63;4.23;;;15.20;99.90;;;;;;6080102;29;20564;-70
2021/07/04 04:46:08;;;;;;;4.37;4.00;;;15.20;99.90;;;;;;6078430;29;20253;-71
2021/07/04 04:49:12;;;;;;;4.40;4.00;;;15.10;99.90;;;;;;6047256;29;20229;-70
2021/07/04 04:52:15;;;;;;;4.47;4.03;;;15.20;99.90;;;;;;6046514;29;20208;-71
2021/07/04 04:55:17;;;;;;;5.27;4.77;;;15.20;99.90;;;;;;6079109;29;20233;-71
2021/07/04 04:58:21;;;;;;;4.57;4.17;;;15.20;99.90;;;;;;6079768;29;20287;-70
2021/07/04 05:01:29;;;;;;;4.57;4.17;;;15.20;99.90;;;;;;6083454;29;20559;-71
2021/07/04 05:04:33;;;;;;;4.73;4.17;;;15.20;99.90;;;;;;6079358;29;20197;-70
2021/07/04 05:07:36;;;;;;;4.80;4.40;;;15.20;99.90;;;;;;6080133;29;20697;-70
2021/07/04 05:10:38;;;;;;;4.57;4.17;;;15.30;99.90;;;;;;6061854;29;20694;-70
2021/07/04 05:13:41;;;;;;;4.63;4.23;;;15.50;99.90;;;;;;6079237;29;20201;-70
2021/07/04 05:16:44;;;;;;;4.83;4.30;;;15.60;99.90;;;;;;6077257;29;20212;-70
2021/07/04 05:19:47;;;;;;;4.30;3.90;;;15.80;99.90;;;;;;6077693;29;20205;-70
2021/07/04 05:22:50;;;;;;;4.60;4.03;;;15.90;99.90;;;;;;6079191;29;20196;-70
2021/07/04 05:25:58;;;;;;;7.13;4.30;;;16.00;99.90;;;;;;6046250;29;20741;-70
2021/07/04 05:29:00;;;;;;;4.43;4.03;;;16.20;99.90;;;;;;6079067;29;20183;-70
2021/07/04 05:32:03;;;;;;;4.57;4.13;;;16.30;99.90;;;;;;6088081;29;20234;-70
2021/07/04 05:35:06;;;;;;;4.30;3.93;;;16.50;99.90;;;;;;6064633;29;20196;-71
2021/07/04 05:38:18;;;;;;;6.37;4.20;;;16.60;99.90;;;;;;6054171;29;20678;-70
2021/07/04 05:41:21;;;;;;;5.03;4.17;;;16.70;99.90;;;;;;6070897;29;20287;-71
2021/07/04 05:44:23;;;;;;;5.97;4.53;;;16.80;99.90;;;;;;6076863;29;20204;-70
2021/07/04 05:47:26;;;;;;;4.87;4.37;;;16.90;99.90;;;;;;6077997;29;20215;-70
2021/07/04 05:50:28;;;;;;;4.70;4.23;;;17.00;99.90;;;;;;6078557;29;20200;-70
2021/07/04 05:53:30;;;;;;;4.33;3.80;;;17.10;99.90;;;;;;6045557;29;20253;-70
2021/07/04 05:56:32;;;;;;;5.30;4.17;;;17.30;99.90;;;;;;6078314;29;20191;-71
2021/07/04 05:59:35;;;;;;;4.50;4.10;;;17.40;99.90;;;;;;6078396;29;20212;-70
2021/07/04 06:02:37;;;;;;;4.70;4.30;;;17.50;99.90;;;;;;6074962;29;20236;-71
2021/07/04 06:05:40;;;;;;;4.27;3.87;;;17.70;99.90;;;;;;6072763;29;20205;-70
2021/07/04 06:08:43;;;;;;;4.03;3.63;;;17.90;99.90;;;;;;6077605;29;20205;-70
2021/07/04 06:11:49;;;;;;;4.40;3.90;;;18.00;99.90;;;;;;6061241;29;20216;-70
2021/07/04 06:14:51;;;;;;;4.50;4.10;;;18.20;99.90;;;;;;6076429;29;20194;-70
2021/07/04 06:17:54;;;;;;;5.63;4.20;;;18.30;99.90;;;;;;6077520;29;20200;-71
2021/07/04 06:20:56;;;;;;;6.07;4.67;;;18.60;99.90;;;;;;6076880;29;20764;-71
2021/07/04 06:23:58;;;;;;;4.33;3.93;;;18.80;99.90;;;;;;6045130;29;20581;-70
2021/07/04 06:27:00;;;;;;;4.33;3.93;;;19.00;99.90;;;;;;6077606;29;20207;-70
2021/07/04 06:30:04;;;;;;;4.47;4.07;;;19.10;99.90;;;;;;6060639;29;20781;-71
2021/07/04 06:33:07;;;;;;;4.30;3.70;;;19.20;99.90;;;;;;6047060;29;20207;-70
2021/07/04 06:36:09;;;;;;;5.37;3.80;;;19.30;99.90;;;;;;6077432;29;20271;-70
2021/07/04 06:39:11;;;;;;;4.23;3.83;;;19.50;99.90;;;;;;6054890;29;20699;-70
2021/07/04 06:42:13;;;;;;;4.33;3.93;;;19.60;99.90;;;;;;6060136;29;20212;-69
2021/07/04 06:45:16;;;;;;;4.83;3.80;;;19.80;99.90;;;;;;6060581;29;20305;-70
2021/07/04 06:48:18;;;;;;;4.10;3.57;;;19.90;99.90;;;;;;6077294;29;20208;-70
2021/07/04 06:51:20;;;;;;;4.70;4.30;;;20.00;99.90;;;;;;6077307;29;20212;-70
2021/07/04 06:54:23;;;;;;;3.87;3.50;;;20.10;99.90;;;;;;6076409;29;20274;-70
2021/07/04 06:57:28;;;;;;;4.07;3.70;;;20.50;99.90;;;;;;6076876;29;20201;-71
2021/07/04 07:00:30;;;;;;;3.67;3.20;;;20.90;99.90;;;;;;6074668;29;20344;-70
2021/07/04 07:03:33;;;;;;;4.60;3.93;;;21.20;96.80;;;;;;6067740;29;20676;-70
2021/07/04 07:06:35;;;;;;;3.80;3.50;;;21.70;94.80;;;;;;6074549;29;20195;-71
2021/07/04 07:09:37;;;;;;;3.57;3.27;;;22.00;94.30;;;;;;6074666;29;20204;-71
2021/07/04 07:12:40;;;;;;;3.63;2.90;;;22.30;93.00;;;;;;6058295;29;20192;-71
2021/07/04 07:15:45;;;;;;;4.70;3.70;;;22.40;92.40;;;;;;6077338;29;20221;-71
2021/07/04 07:18:47;;;;;;;4.23;3.80;;;22.40;91.70;;;;;;6075571;29;20192;-71
2021/07/04 07:21:52;;;;;;;4.77;3.73;;;22.40;91.70;;;;;;6062305;29;20657;-71
2021/07/04 07:24:54;;;;;;;6.93;3.87;;;22.30;91.70;;;;;;6084255;29;21092;-70
2021/07/04 07:27:59;;;;;;;4.20;3.80;;;22.40;91.10;;;;;;6081637;29;20530;-71
2021/07/04 07:31:09;;;;;;;3.70;3.40;;;22.40;90.60;;;;;;6082793;29;20230;-70
2021/07/04 07:34:12;;;;;;;4.27;3.53;;;22.60;90.90;;;;;;6056946;29;20543;-71
2021/07/04 07:37:15;;;;;;;3.97;3.67;;;22.80;90.60;;;;;;6059127;29;20193;-71
2021/07/04 07:40:18;;;;;;;5.93;3.70;;;22.90;90.20;;;;;;6080814;29;20724;-72
2021/07/04 07:43:23;;;;;;;5.53;3.50;;;23.10;90.30;;;;;;6079165;29;20264;-71
2021/07/04 07:46:26;;;;;;;5.17;3.30;;;23.20;90.10;;;;;;6061814;29;20240;-71
2021/07/04 07:49:28;;;;;;;4.23;3.83;;;23.40;90.20;;;;;;6079371;29;20209;-71
2021/07/04 07:52:30;;;;;;;4.27;3.87;;;23.50;89.90;;;;;;6078972;29;20584;-71
2021/07/04 07:55:32;;;;;;;4.00;3.60;;;23.60;88.90;;;;;;6077595;29;20203;-71
2021/07/04 07:58:35;;;;;;;4.00;3.60;;;23.60;88.90;;;;;;6063781;29;20205;-72
2021/07/04 08:01:40;;;;;;;4.40;4.00;;;23.60;87.50;;;;;;6086182;29;20601;-71
2021/07/04 08:04:45;;;;;;;4.70;4.20;;;23.70;87.70;;;;;;6097363;29;20196;-72
2021/07/04 08:07:47;;;;;;;5.70;4.17;;;23.80;87.90;;;;;;6080435;29;20204;-71
2021/07/04 08:10:52;;;;;;;5.73;4.33;;;23.70;88.10;;;;;;6063807;29;20225;-71
2021/07/04 08:13:54;;;;;;;6.03;4.50;;;23.70;90.00;;;;;;6063720;29;20198;-71
2021/07/04 08:16:56;;;;;;;4.40;3.80;;;23.70;91.00;;;;;;6063753;29;20323;-71
2021/07/04 08:19:59;;;;;;;4.00;3.70;;;23.60;91.40;;;;;;6080472;29;20207;-71
2021/07/04 08:23:01;;;;;;;4.17;3.70;;;23.60;91.90;;;;;;6080166;29;20220;-71
2021/07/04 08:26:03;;;;;;;5.60;4.13;;;23.40;92.20;;;;;;6063449;29;20204;-71
2021/07/04 08:29:06;;;;;;;4.90;4.50;;;23.30;92.50;;;;;;6079874;29;20203;-71
2021/07/04 08:32:09;;;;;;;4.27;3.97;;;23.30;92.10;;;;;;6084210;29;20220;-71
2021/07/04 08:35:12;;;;;;;4.77;4.20;;;23.00;91.90;;;;;;6063168;29;20199;-71
2021/07/04 08:38:14;;;;;;;4.37;3.97;;;22.90;92.80;;;;;;6079634;29;20217;-71
2021/07/04 08:41:16;;;;;;;4.60;4.20;;;23.00;93.00;;;;;;6079866;29;20803;-71
2021/07/04 08:44:18;;;;;;;4.70;4.30;;;23.30;93.50;;;;;;6078061;29;20219;-71
2021/07/04 08:47:22;;;;;;;4.70;4.20;;;24.00;92.50;;;;;;6079984;29;20193;-71
2021/07/04 08:50:25;;;;;;;3.97;3.67;;;24.60;91.10;;;;;;6078564;29;20315;-71
2021/07/04 08:53:27;;;;;;;4.10;3.80;;;24.80;90.40;;;;;;6062850;29;20189;-71
2021/07/04 08:56:29;;;;;;;4.40;4.00;;;24.70;90.10;;;;;;6079573;29;20189;-71
2021/07/04 08:59:32;;;;;;;4.30;3.90;;;24.60;90.40;;;;;;6078025;29;20195;-71
2021/07/04 09:02:37;;;;;;;4.30;3.90;;;24.60;90.80;;;;;;6075043;29;20188;-72
2021/07/04 09:05:43;;;;;;;4.00;3.70;;;24.60;90.80;;;;;;6047166;29;20205;-71
2021/07/04 09:08:45;;;;;;;4.23;3.90;;;24.60;90.50;;;;;;6079467;29;20220;-71
2021/07/04 09:12:15;;;;;;;4.37;3.97;;;24.80;90.60;;;;;;6079145;29;20295;-72
2021/07/04 09:15:21;;;;;;;3.83;3.53;;;25.10;90.60;;;;;;6079015;29;20201;-72
2021/07/04 09:18:24;;;;;;;4.67;3.73;;;25.50;88.90;;;;;;6079338;29;20560;-72
2021/07/04 09:21:26;;;;;;;4.07;3.60;;;25.70;87.90;;;;;;6078829;29;20276;-72
2021/07/04 09:24:38;;;;;;;4.30;3.90;;;25.90;85.80;;;;;;6077544;29;20234;-72
2021/07/04 09:27:46;;;;;;;4.10;3.70;;;26.10;84.40;;;;;;6079149;29;20193;-72
2021/07/04 09:30:54;;;;;;;4.13;3.72;;;26.10;82.90;;;;;;6062048;29;20273;-72
2021/07/04 09:34:23;;;;;;;4.40;4.00;;;26.00;81.30;;;;;;6098892;29;20713;-72
2021/07/04 09:37:34;;;;;;;4.03;3.72;;;25.90;80.00;;;;;;6060551;29;20200;-71
2021/07/04 09:40:39;;;;;;;4.50;4.10;;;25.80;80.00;;;;;;6078620;29;20240;-72
2021/07/04 09:43:42;;;;;;;4.55;4.15;;;25.80;79.60;;;;;;6156274;23;20252;-71
2021/07/04 09:46:44;;;;;;;5.20;3.92;;;25.80;80.70;;;;;;6055413;29;20277;-72
2021/07/04 09:49:48;;;;;;;5.13;3.95;;;26.00;79.80;;;;;;6055498;29;20758;-72
2021/07/04 09:53:02;;;;;;;4.07;3.75;;;26.30;79.80;;;;;;6054556;29;20221;-71
2021/07/04 09:56:14;;;;;;;4.30;3.90;;;26.70;78.00;;;;;;6055262;29;20197;-71
2021/07/04 09:59:21;;;;;;;3.75;3.45;;;27.40;72.50;;;;;;6069501;29;20563;-71
2021/07/04 10:02:23;;;;;;;4.30;3.90;;;27.90;65.80;;;;;;6060739;29;20798;-71
2021/07/04 10:05:25;;;;;;;3.55;3.10;;;28.50;61.80;;;;;;6054445;29;20209;-72
2021/07/04 10:08:36;;;;;;;2.75;2.55;;;29.00;56.00;;;;;;6055066;29;20615;-72
2021/07/04 10:11:38;;;;;;;2.67;2.47;;;29.00;51.70;;;;;;6068984;29;20731;-71
2021/07/04 10:14:40;;;;;;;3.40;3.10;;;29.00;51.80;;;;;;6053359;29;20570;-72
2021/07/04 10:17:42;;;;;;;3.00;2.80;;;29.10;53.30;;;;;;6054883;29;20269;-71
2021/07/04 10:20:49;;;;;;;3.72;3.42;;;29.20;53.00;;;;;;6053318;29;20201;-72
2021/07/04 10:23:53;;;;;;;2.88;2.67;;;29.40;54.10;;;;;;6053286;29;20216;-72
2021/07/04 10:26:58;;;;;;;3.38;3.08;;;29.50;53.30;;;;;;6053051;29;20202;-72
2021/07/04 10:30:02;;;;;;;3.17;2.88;;;29.60;55.10;;;;;;6054045;29;20205;-72
2021/07/04 10:33:20;;;;;;;3.30;3.10;;;29.70;53.40;;;;;;6047655;29;20221;-73
2021/07/04 10:36:22;;;;;;;2.88;2.67;;;29.70;50.20;;;;;;6057026;29;20201;-73
2021/07/04 10:39:30;;;;;;;3.03;2.83;;;29.70;53.00;;;;;;6049102;29;20253;-72
2021/07/04 10:42:37;;;;;;;3.20;3.00;;;29.60;51.50;;;;;;6053812;29;20768;-73
2021/07/04 10:45:42;;;;;;;3.00;2.80;;;29.70;52.60;;;;;;6053168;29;20194;-73
2021/07/04 10:48:55;;;;;;;3.05;2.85;;;29.90;52.80;;;;;;6052264;29;20657;-73
2021/07/04 10:52:00;;;;;;;3.00;2.60;;;30.10;49.50;;;;;;6051892;29;20795;-72
2021/07/04 10:55:13;;;;;;;2.92;2.72;;;30.10;50.70;;;;;;6050379;29;20202;-72
2021/07/04 10:58:16;;;;;;;3.38;3.05;;;30.10;47.90;;;;;;6054598;29;20272;-72
2021/07/04 11:01:46;;;;;;;2.78;2.58;;;30.00;47.20;;;;;;6056860;29;20577;-72
2021/07/04 11:04:51;;;;;;;2.97;2.78;;;29.80;48.60;;;;;;6063657;29;20198;-73
2021/07/04 11:07:53;;;;;;;2.95;2.75;;;29.80;48.10;;;;;;6053466;29;20568;-72
2021/07/04 11:10:59;;;;;;;2.67;2.47;;;29.70;49.40;;;;;;6052845;29;20213;-73
2021/07/04 11:14:09;;;;;;;3.13;2.92;;;29.80;50.00;;;;;;6052081;29;20262;-72
2021/07/04 11:17:11;;;;;;;3.00;2.80;;;29.90;50.20;;;;;;6049918;29;20202;-70
2021/07/04 11:20:18;;;;;;;2.65;2.45;;;30.00;48.50;;;;;;6053609;29;20200;-72
2021/07/04 11:23:23;;;;;;;3.05;2.80;;;30.30;46.30;;;;;;6041331;29;20206;-73
2021/07/04 11:26:25;;;;;;;2.42;2.22;;;30.50;45.00;;;;;;6056389;29;20197;-72
2021/07/04 11:29:27;;;;;;;3.00;2.50;;;30.80;45.60;;;;;;6047444;29;20571;-71
2021/07/04 11:32:30;;;;;;;3.67;2.60;;;31.00;44.00;;;;;;6066883;29;20307;-71
2021/07/04 11:35:42;;;;;;;2.90;2.60;;;31.20;42.80;;;;;;6066318;29;20196;-72
2021/07/04 11:38:52;;;;;;;2.85;2.60;;;31.40;41.90;;;;;;6053902;29;20202;-71
2021/07/04 11:41:54;;;;;;;3.03;2.70;;;31.40;42.90;;;;;;6053412;29;20273;-72
2021/07/04 11:44:56;;;;;;;3.45;2.75;;;31.30;42.80;;;;;;6052689;29;20911;-72
2021/07/04 11:47:58;;;;;;;2.92;2.72;;;30.90;43.00;;;;;;6053832;29;20198;-72
2021/07/04 11:51:00;;;;;;;3.03;2.83;;;30.60;43.30;;;;;;6051804;29;20217;-72
2021/07/04 11:54:23;;;;;;;3.58;3.13;;;30.30;44.70;;;;;;6052287;29;20208;-71
2021/07/04 11:57:31;;;;;;;2.85;2.65;;;30.20;43.50;;;;;;6057229;29;20558;-73
2021/07/04 12:00:33;;;;;;;3.13;2.83;;;29.80;46.50;;;;;;6053925;29;20204;-73
2021/07/04 12:03:36;;;;;;;2.65;2.45;;;29.80;47.50;;;;;;6063930;29;20320;-72
2021/07/04 12:06:58;;;;;;;3.08;2.80;;;29.80;48.40;;;;;;6047089;29;20288;-73
2021/07/04 12:10:00;;;;;;;3.22;2.92;;;29.80;47.20;;;;;;6057795;29;20194;-73
2021/07/04 12:13:03;;;;;;;4.95;3.00;;;29.50;47.10;;;;;;6055865;29;20606;-73
2021/07/04 12:16:06;;;;;;;2.88;2.67;;;29.30;48.80;;;;;;6057559;29;20189;-73
2021/07/04 12:19:08;;;;;;;3.03;2.80;;;29.40;50.50;;;;;;6055780;29;20674;-72
2021/07/04 12:22:13;;;;;;;3.40;3.10;;;29.50;47.80;;;;;;6057592;29;20205;-71
2021/07/04 12:25:22;;;;;;;2.90;2.70;;;29.70;50.20;;;;;;6057032;29;20201;-73
2021/07/04 12:28:27;;;;;;;3.47;3.20;;;29.90;49.50;;;;;;6057218;29;20257;-73
2021/07/04 12:31:29;;;;;;;4.07;3.67;;;30.40;48.40;;;;;;6061310;29;20295;-73
2021/07/04 12:34:39;;;;;;;3.63;3.33;;;31.00;46.60;;;;;;6066877;29;20214;-72
2021/07/04 12:37:42;;;;;;;3.60;3.30;;;31.30;44.60;;;;;;6056930;29;20567;-73
2021/07/04 12:40:55;;;;;;;4.13;3.42;;;31.20;43.30;;;;;;6056747;29;20189;-73
2021/07/04 12:43:57;;;;;;;3.53;3.22;;;31.30;43.40;;;;;;6056750;29;20240;-73
2021/07/04 12:47:00;;;;;;;3.85;3.35;;;31.20;42.60;;;;;;6055307;29;20201;-73
2021/07/04 12:50:22;;;;;;;3.78;3.47;;;30.70;42.90;;;;;;6056561;29;20197;-73
2021/07/04 12:53:43;;;;;;;3.10;2.80;;;30.20;43.20;;;;;;6055521;29;20222;-73
2021/07/04 12:56:49;;;;;;;3.50;3.25;;;29.90;44.20;;;;;;6055076;29;20252;-71
2021/07/04 12:59:51;;;;;;;3.60;3.30;;;29.80;45.20;;;;;;6055431;29;20821;-73
2021/07/04 13:02:53;;;;;;;6.05;3.47;;;29.50;44.30;;;;;;6072269;29;20196;-72
2021/07/04 13:05:55;;;;;;;4.30;3.30;;;30.00;45.00;;;;;;6055955;29;20731;-73
2021/07/04 13:08:59;;;;;;;3.60;3.30;;;30.40;43.60;;;;;;6045141;29;20197;-72
2021/07/04 13:12:08;;;;;;;3.40;3.10;;;30.20;43.90;;;;;;6055082;29;20705;-72
2021/07/04 13:15:13;;;;;;;3.67;3.38;;;30.10;44.60;;;;;;6054873;29;20657;-71
2021/07/04 13:18:30;;;;;;;5.82;3.50;;;30.00;45.60;;;;;;6054825;29;20190;-71
2021/07/04 13:21:35;;;;;;;3.50;3.20;;;29.80;45.50;;;;;;6054711;29;20202;-73
2021/07/04 13:24:44;;;;;;;3.30;3.00;;;29.60;45.10;;;;;;6055624;29;20250;-73
2021/07/04 13:28:15;;;;;;;3.28;3.03;;;29.50;47.00;;;;;;6056297;29;20182;-72
2021/07/04 13:31:17;;;;;;;4.82;3.35;;;29.70;48.40;;;;;;6059714;29;20219;-72
2021/07/04 13:34:21;;;;;;;3.50;3.20;;;30.20;48.20;;;;;;6056995;29;20531;-73
2021/07/04 13:37:27;;;;;;;3.58;3.28;;;30.70;46.00;;;;;;6040461;29;20220;-72
2021/07/04 13:40:30;;;;;;;3.63;3.33;;;30.80;42.50;;;;;;6055424;29;20276;-71
2021/07/04 13:43:32;;;;;;;3.17;2.97;;;30.70;41.70;;;;;;6054110;29;20412;-72
2021/07/04 13:46:38;;;;;;;3.33;3.03;;;31.10;41.90;;;;;;6055274;29;20207;-72
2021/07/04 13:49:41;;;;;;;3.45;3.13;;;31.50;42.10;;;;;;6055509;29;20280;-72
2021/07/04 13:52:43;;;;;;;3.45;3.15;;;31.80;41.10;;;;;;6055386;29;20209;-71
2021/07/04 13:55:46;;;;;;;3.33;3.03;;;31.90;41.70;;;;;;6053674;29;20190;-73
2021/07/04 13:58:49;;;;;;;3.50;3.20;;;32.30;42.40;;;;;;6055515;29;20242;-72
2021/07/04 14:01:51;;;;;;;3.72;3.17;;;32.90;41.10;;;;;;6061444;29;20220;-73
2021/07/04 14:04:53;;;;;;;3.10;2.90;;;33.80;39.10;;;;;;6059469;29;20213;-73
2021/07/04 14:07:56;;;;;;;3.28;2.97;;;34.60;38.20;;;;;;6053916;29;20581;-72
2021/07/04 14:10:58;;;;;;;3.15;2.85;;;34.90;37.30;;;;;;6054701;29;20197;-73
2021/07/04 14:14:00;;;;;;;3.90;3.00;;;34.80;38.10;;;;;;6053482;29;20318;-72
2021/07/04 14:17:03;;;;;;;5.25;3.47;;;35.30;37.50;;;;;;6054368;29;20198;-72
2021/07/04 14:20:07;;;;;;;3.55;3.25;;;35.80;36.40;;;;;;6053777;29;20185;-73
2021/07/04 14:23:10;;;;;;;3.42;3.15;;;36.30;34.50;;;;;;6054830;29;20193;-73
2021/07/04 14:26:12;;;;;;;3.42;3.13;;;35.90;35.60;;;;;;6053098;29;20740;-73
2021/07/04 14:29:14;;;;;;;3.38;3.08;;;35.10;36.90;;;;;;6053105;29;20642;-73
2021/07/04 14:32:16;;;;;;;3.38;3.08;;;34.10;36.90;;;;;;6066266;29;20259;-72
2021/07/04 14:35:20;;;;;;;3.47;3.15;;;33.50;38.50;;;;;;6063172;29;20190;-71
2021/07/04 14:38:22;;;;;;;3.38;2.90;;;33.20;38.80;;;;;;6054537;29;20193;-73
2021/07/04 14:41:25;;;;;;;3.05;2.75;;;33.00;38.40;;;;;;6052796;29;20280;-72
2021/07/04 14:44:27;;;;;;;3.45;3.15;;;32.50;39.10;;;;;;6052527;29;20292;-72
2021/07/04 14:47:29;;;;;;;5.72;3.40;;;32.10;40.00;;;;;;6053901;29;20254;-72
2021/07/04 14:50:32;;;;;;;3.50;3.15;;;31.70;40.40;;;;;;6054535;29;20546;-72
2021/07/04 14:53:39;;;;;;;3.45;3.15;;;31.40;41.60;;;;;;6052736;29;20578;-73
2021/07/04 14:56:42;;;;;;;3.65;3.35;;;31.10;42.60;;;;;;6054221;29;20649;-72
2021/07/04 14:59:45;;;;;;;3.25;2.97;;;30.90;42.20;;;;;;6053948;29;20217;-71
2021/07/04 15:02:51;;;;;;;3.20;3.00;;;31.70;41.00;;;;;;6056128;29;20212;-71
2021/07/04 15:05:54;;;;;;;3.53;3.20;;;33.00;39.10;;;;;;6052849;29;20288;-71
2021/07/04 15:08:56;;;;;;;4.40;3.42;;;34.30;38.40;;;;;;6054518;29;20212;-72
2021/07/04 15:11:59;;;;;;;4.50;3.30;;;35.50;36.40;;;;;;6052721;29;20209;-71
2021/07/04 15:15:02;;;;;;;3.83;3.53;;;36.30;36.00;;;;;;6052695;29;20208;-72
2021/07/04 15:18:04;;;;;;;3.55;3.25;;;37.20;35.60;;;;;;6052400;29;20194;-71
2021/07/04 15:21:06;;;;;;;5.43;3.17;;;37.60;34.40;;;;;;6052511;29;20280;-70
2021/07/04 15:24:09;;;;;;;3.17;2.70;;;37.60;34.00;;;;;;6053595;29;20302;-72
2021/07/04 15:27:11;;;;;;;4.80;3.10;;;37.70;33.30;;;;;;6053620;29;20197;-72
2021/07/04 15:30:14;;;;;;;3.40;3.10;;;37.50;33.60;;;;;;6052914;29;20685;-71
2021/07/04 15:33:16;;;;;;;3.10;2.88;;;38.00;34.10;;;;;;6064645;29;20213;-72
2021/07/04 15:36:19;;;;;;;3.80;3.50;;;38.20;33.20;;;;;;6056616;29;20225;-71
2021/07/04 15:39:22;;;;;;;5.32;3.60;;;38.10;33.80;;;;;;6058031;29;20280;-72
2021/07/04 15:42:24;;;;;;;3.95;3.65;;;38.20;33.90;;;;;;6059136;29;20233;-71
2021/07/04 15:45:28;;;;;;;4.13;3.72;;;37.90;33.90;;;;;;6056498;29;20300;-72
2021/07/04 15:48:30;;;;;;;4.03;3.70;;;37.70;34.00;;;;;;6058303;29;20201;-71
2021/07/04 15:51:34;;;;;;;4.70;4.15;;;37.50;35.00;;;;;;6057928;29;20296;-72
2021/07/04 15:54:37;;;;;;;4.22;3.45;;;37.40;34.10;;;;;;6056757;29;20213;-71
2021/07/04 15:57:39;;;;;;;3.90;3.58;;;36.50;34.90;;;;;;6058186;29;20676;-72
2021/07/04 16:00:43;;;;;;;3.40;3.05;;;35.90;35.50;;;;;;6057650;29;20194;-72
2021/07/04 16:03:46;;;;;;;3.65;3.35;;;35.40;36.10;;;;;;6076120;29;20201;-72
2021/07/04 16:06:48;;;;;;;3.70;3.40;;;35.40;36.20;;;;;;6057692;29;20537;-72